createdAt,value
2023-04-26T00:00:20.507Z,100035.56
2023-04-26T00:14:56.948Z,100045.16
2023-04-26T00:17:27.420Z,100039.44
2023-04-26T00:19:59.046Z,100027.69
2023-04-26T00:22:28.598Z,100027.94
2023-04-26T00:25:00.894Z,100033.44
2023-04-26T00:27:30.523Z,100034.69
2023-04-26T00:30:00.486Z,100049.06
2023-04-26T00:32:30.208Z,100058.59
2023-04-26T00:35:01.582Z,100067.06
2023-04-26T00:37:31.163Z,100068.19
2023-04-26T00:40:01.176Z,100060.88
2023-04-26T00:42:31.773Z,100060.16
2023-04-26T00:45:01.452Z,100053.97
2023-04-26T00:47:32.595Z,100058.19
2023-04-26T00:50:03.504Z,100073.25
2023-04-26T00:52:33.470Z,100067.50
2023-04-26T00:55:03.318Z,100072.97
2023-04-26T00:57:33.087Z,100076.22
2023-04-26T01:00:04.892Z,100079.44
2023-04-26T01:02:37.725Z,100085.94
2023-04-26T01:05:08.352Z,100078.59
2023-04-26T01:07:42.559Z,100083.38
2023-04-26T01:10:12.827Z,100084.22
2023-04-26T01:12:49.463Z,100097.19
2023-04-26T01:15:22.206Z,100113.81
2023-04-26T01:17:55.117Z,100124.78
2023-04-26T01:20:26.815Z,100140.38
2023-04-26T01:22:56.590Z,100139.41
2023-04-26T01:25:31.746Z,100132.94
2023-04-26T01:28:01.345Z,100126.75
2023-04-26T01:30:30.943Z,100121.09
2023-04-26T01:33:04.549Z,100143.06
2023-04-26T01:35:35.094Z,100143.06
2023-04-26T01:38:06.239Z,100138.25
2023-04-26T01:40:36.342Z,100127.53
2023-04-26T01:43:06.239Z,100131.22
2023-04-26T01:45:36.336Z,100141.91
2023-04-26T01:48:18.312Z,100149.09
2023-04-26T01:50:51.163Z,100154.47
2023-04-26T01:53:21.182Z,100147.09
2023-04-26T01:55:50.873Z,100157.97
2023-04-26T01:58:20.673Z,100151.78
2023-04-26T02:00:50.241Z,100156.97
2023-04-26T02:03:26.843Z,100163.72
2023-04-26T02:06:13.662Z,100180.22
2023-04-26T02:08:46.986Z,100180.50
2023-04-26T02:11:25.824Z,100178.66
2023-04-26T02:13:56.293Z,100192.03
2023-04-26T02:16:28.844Z,100191.19
2023-04-26T02:19:06.316Z,100191.59
2023-04-26T02:21:36.180Z,100200.34
2023-04-26T02:24:08.821Z,100197.94
2023-04-26T02:26:41.097Z,100204.69
2023-04-26T02:29:10.930Z,100191.16
2023-04-26T02:31:40.671Z,100186.25
2023-04-26T02:34:10.356Z,100190.31
2023-04-26T02:36:40.434Z,100197.63
2023-04-26T02:41:43.673Z,100197.34
2023-04-26T02:44:13.597Z,100196.06
2023-04-26T02:46:43.499Z,100198.75
2023-04-26T02:49:23.451Z,100203.25
2023-04-26T02:51:53.106Z,100194.94
2023-04-26T02:54:40.283Z,100198.06
2023-04-26T02:57:09.961Z,100195.06
2023-04-26T02:59:39.584Z,100210.03
2023-04-26T03:02:09.498Z,100213.13
2023-04-26T03:07:28.108Z,100216.81
2023-04-26T03:09:58.060Z,100213.56
2023-04-26T03:12:33.484Z,100225.22
2023-04-26T03:15:05.978Z,100222.88
2023-04-26T03:17:38.416Z,100228.63
2023-04-26T03:20:12.705Z,100223.84
2023-04-26T03:22:54.978Z,100222.88
2023-04-26T03:25:24.898Z,100228.91
2023-04-26T03:27:58.090Z,100227.38
2023-04-26T03:30:31.106Z,100224.56
2023-04-26T03:33:00.873Z,100228.34
2023-04-26T03:35:30.703Z,100231.03
2023-04-26T03:38:00.367Z,100232.88
2023-04-26T03:40:32.918Z,100235.41
2023-04-26T03:43:03.400Z,100227.91
2023-04-26T03:45:33.263Z,100234.97
2023-04-26T03:48:05.651Z,100235.81
2023-04-26T03:50:38.206Z,100236.81
2023-04-26T03:53:10.704Z,100236.66
2023-04-26T03:55:40.552Z,100235.09
2023-04-26T03:58:10.177Z,100234.25
2023-04-26T04:00:45.063Z,100230.47
2023-04-26T04:03:14.835Z,100229.19
2023-04-26T04:05:47.452Z,100228.78
2023-04-26T04:08:17.317Z,100240.34
2023-04-26T04:10:54.268Z,100242.16
2023-04-26T04:13:27.360Z,100252.00
2023-04-26T04:15:57.082Z,100243.50
2023-04-26T04:18:29.645Z,100247.91
2023-04-26T04:20:59.513Z,100263.44
2023-04-26T04:23:29.602Z,100260.31
2023-04-26T04:26:05.514Z,100263.28
2023-04-26T04:28:36.248Z,100271.16
2023-04-26T04:31:06.162Z,100271.72
2023-04-26T04:33:38.739Z,100265.66
2023-04-26T04:36:08.922Z,100264.53
2023-04-26T04:38:41.742Z,100257.38
2023-04-26T04:41:19.446Z,100258.22
2023-04-26T04:43:49.642Z,100257.38
2023-04-26T04:46:19.531Z,100256.38
2023-04-26T04:48:49.158Z,100261.75
2023-04-26T04:51:21.778Z,100263.56
2023-04-26T04:53:55.461Z,100264.41
2023-04-26T04:56:28.175Z,100265.25
2023-04-26T04:58:57.963Z,100272.72
2023-04-26T05:01:48.480Z,100269.78
2023-04-26T05:04:18.274Z,100263.16
2023-04-26T05:06:47.998Z,100278.38
2023-04-26T05:09:17.599Z,100279.34
2023-04-26T05:11:47.619Z,100286.25
2023-04-26T05:14:17.237Z,100286.53
2023-04-26T05:16:46.967Z,100294.56
2023-04-26T05:19:16.614Z,100289.91
2023-04-26T05:21:46.157Z,100299.63
2023-04-26T05:24:15.754Z,100292.59
2023-04-26T05:26:45.403Z,100290.88
2023-04-26T05:29:14.989Z,100292.28
2023-04-26T05:31:44.627Z,100290.59
2023-04-26T05:34:14.510Z,100297.63
2023-04-26T05:36:44.096Z,100296.78
2023-04-26T05:39:13.988Z,100282.28
2023-04-26T05:41:43.930Z,100292.75
2023-04-26T05:44:13.528Z,100298.78
2023-04-26T05:46:43.402Z,100292.75
2023-04-26T05:49:12.979Z,100298.50
2023-04-26T05:51:42.720Z,100305.84
2023-04-26T05:54:12.272Z,100294.84
2023-04-26T05:56:41.891Z,100307.66
2023-04-26T05:59:11.588Z,100314.03
2023-04-26T06:01:41.280Z,100321.19
2023-04-26T06:04:11.482Z,100316.53
2023-04-26T06:06:41.441Z,100304.72
2023-04-26T06:09:11.378Z,100311.47
2023-04-26T06:11:40.970Z,100322.06
2023-04-26T06:14:19.815Z,100323.06
2023-04-26T06:16:59.611Z,100329.38
2023-04-26T06:19:30.365Z,100336.84
2023-04-26T06:22:00.048Z,100333.16
2023-04-26T06:24:29.868Z,100343.59
2023-04-26T06:26:59.528Z,100343.59
2023-04-26T06:29:29.109Z,100344.16
2023-04-26T06:31:58.746Z,100347.84
2023-04-26T06:34:28.684Z,100347.00
2023-04-26T06:36:58.220Z,100345.44
2023-04-26T06:39:27.809Z,100347.00
2023-04-26T06:41:57.783Z,100350.53
2023-04-26T06:44:27.801Z,100342.88
2023-04-26T06:46:57.485Z,100355.72
2023-04-26T06:49:27.203Z,100356.72
2023-04-26T06:51:56.766Z,100353.19
2023-04-26T06:54:31.187Z,100352.03
2023-04-26T06:57:01.381Z,100352.19
2023-04-26T06:59:31.321Z,100359.41
2023-04-26T07:02:02.245Z,100358.97
2023-04-26T07:04:33.275Z,100366.03
2023-04-26T07:07:03.036Z,100366.72
2023-04-26T07:09:33.240Z,100371.66
2023-04-26T07:12:02.842Z,100370.66
2023-04-26T07:14:32.670Z,100380.25
2023-04-26T07:17:02.228Z,100374.34
2023-04-26T07:19:32.273Z,100376.44
2023-04-26T07:22:02.801Z,100381.25
2023-04-26T07:24:32.607Z,100379.41
2023-04-26T07:27:02.734Z,100382.66
2023-04-26T07:29:32.283Z,100377.00
2023-04-26T07:32:02.062Z,100393.34
2023-04-26T07:34:31.739Z,100400.28
2023-04-26T07:37:01.360Z,100413.50
2023-04-26T07:39:30.954Z,100407.88
2023-04-26T07:42:00.496Z,100404.47
2023-04-26T07:44:30.161Z,100404.34
2023-04-26T07:46:59.948Z,100412.66
2023-04-26T07:49:29.563Z,100418.28
2023-04-26T07:52:03.414Z,100422.53
2023-04-26T07:54:33.235Z,100422.25
2023-04-26T07:57:03.469Z,100432.25
2023-04-26T07:59:33.518Z,100426.75
2023-04-26T08:02:03.667Z,100421.81
2023-04-26T08:04:35.946Z,100413.63
2023-04-26T08:07:05.729Z,100425.34
2023-04-26T08:09:35.327Z,100429.69
2023-04-26T08:12:07.094Z,100443.91
2023-04-26T08:14:40.161Z,100447.41
2023-04-26T08:17:13.358Z,100451.81
2023-04-26T08:19:43.108Z,100455.44
2023-04-26T08:22:12.692Z,100446.13
2023-04-26T08:24:42.304Z,100441.34
2023-04-26T08:27:11.948Z,100448.22
2023-04-26T08:29:41.545Z,100457.13
2023-04-26T08:32:11.271Z,100463.31
2023-04-26T08:34:41.062Z,100471.06
2023-04-26T08:37:10.662Z,100465.28
2023-04-26T08:39:40.369Z,100460.88
2023-04-26T08:42:17.177Z,100478.34
2023-04-26T08:44:48.015Z,100478.75
2023-04-26T08:47:50.926Z,100478.59
2023-04-26T08:50:24.985Z,100477.19
2023-04-26T08:52:54.953Z,100479.28
2023-04-26T08:55:25.045Z,100474.34
2023-04-26T08:57:54.631Z,100472.00
2023-04-26T09:00:24.712Z,100473.94
2023-04-26T09:02:55.544Z,100474.19
2023-04-26T09:05:25.914Z,100485.16
2023-04-26T09:08:06.794Z,100486.31
2023-04-26T09:10:36.988Z,100491.66
2023-04-26T09:13:06.565Z,100491.50
2023-04-26T09:15:36.248Z,100502.06
2023-04-26T09:18:25.523Z,100505.81
2023-04-26T09:21:14.806Z,100512.72
2023-04-26T09:24:01.405Z,100509.78
2023-04-26T09:26:30.989Z,100512.41
2023-04-26T09:29:19.414Z,100527.63
2023-04-26T09:31:51.536Z,100529.84
2023-04-26T09:34:21.140Z,100533.47
2023-04-26T09:36:54.357Z,100534.91
2023-04-26T09:39:36.986Z,100536.69
2023-04-26T09:42:10.479Z,100540.25
2023-04-26T09:44:40.531Z,100550.66
2023-04-26T09:47:13.992Z,100561.22
2023-04-26T09:49:48.232Z,100569.47
2023-04-26T09:52:18.183Z,100560.75
2023-04-26T09:54:54.662Z,100558.09
2023-04-26T09:57:25.127Z,100546.91
2023-04-26T09:59:57.859Z,100549.88
2023-04-26T10:02:29.546Z,100557.03
2023-04-26T10:05:01.429Z,100566.38
2023-04-26T10:07:32.813Z,100573.22
2023-04-26T10:10:02.799Z,100586.81
2023-04-26T10:12:32.370Z,100582.06
2023-04-26T10:15:01.994Z,100580.63
2023-04-26T10:17:31.720Z,100576.63
2023-04-26T10:20:02.234Z,100584.06
2023-04-26T10:22:35.266Z,100585.84
2023-04-26T10:25:05.417Z,100590.75
2023-04-26T10:27:48.301Z,100599.81
2023-04-26T10:30:23.322Z,100600.44
2023-04-26T10:32:59.009Z,100600.94
2023-04-26T10:35:35.369Z,100598.28
2023-04-26T10:38:05.159Z,100602.88
2023-04-26T10:40:42.661Z,100608.22
2023-04-26T10:43:12.228Z,100610.66
2023-04-26T10:45:43.088Z,100625.72
2023-04-26T10:48:32.487Z,100621.34
2023-04-26T10:51:10.065Z,100623.09
2023-04-26T10:53:54.402Z,100625.16
2023-04-26T10:56:30.385Z,100626.50
2023-04-26T10:59:36.285Z,100630.28
2023-04-26T11:02:06.676Z,100647.66
2023-04-26T11:04:55.222Z,100654.09
2023-04-26T11:07:40.396Z,100652.88
2023-04-26T11:10:12.797Z,100656.38
2023-04-26T11:12:44.363Z,100651.81
2023-04-26T11:15:15.352Z,100653.75
2023-04-26T11:17:44.939Z,100659.09
2023-04-26T11:20:18.901Z,100662.75
2023-04-26T11:22:48.495Z,100672.44
2023-04-26T11:25:18.033Z,100665.41
2023-04-26T11:27:48.308Z,100667.97
2023-04-26T11:30:21.525Z,100666.75
2023-04-26T11:32:51.226Z,100662.53
2023-04-26T11:35:20.876Z,100675.75
2023-04-26T11:37:51.048Z,100677.72
2023-04-26T11:40:21.185Z,100681.47
2023-04-26T11:42:50.805Z,100670.66
2023-04-26T11:45:20.467Z,100668.59
2023-04-26T11:47:50.357Z,100672.25
2023-04-26T11:50:20.355Z,100672.84
2023-04-26T11:52:49.978Z,100679.78
2023-04-26T11:55:19.634Z,100682.44
2023-04-26T11:57:49.200Z,100691.19
2023-04-26T12:00:19.291Z,100701.63
2023-04-26T12:02:52.419Z,100708.56
2023-04-26T12:05:28.986Z,100700.41
2023-04-26T12:08:02.570Z,100706.00
2023-04-26T12:10:37.082Z,100703.91
2023-04-26T12:13:06.088Z,100698.97
2023-04-26T12:15:36.413Z,100695.69
2023-04-26T12:18:11.817Z,100708.94
2023-04-26T12:20:43.524Z,100712.31
2023-04-26T12:23:16.471Z,100726.41
2023-04-26T12:26:03.535Z,100719.63
2023-04-26T12:28:33.192Z,100721.53
2023-04-26T12:31:03.038Z,100731.00
2023-04-26T12:33:34.541Z,100734.06
2023-04-26T12:36:14.379Z,100736.34
2023-04-26T12:38:44.360Z,100742.44
2023-04-26T12:41:13.961Z,100753.13
2023-04-26T12:43:43.730Z,100754.06
2023-04-26T12:46:13.367Z,100753.84
2023-04-26T12:48:43.105Z,100755.19
2023-04-26T12:51:12.715Z,100762.34
2023-04-26T12:53:42.321Z,100767.69
2023-04-26T12:56:12.011Z,100765.03
2023-04-26T12:58:41.636Z,100761.38
2023-04-26T13:01:12.477Z,100755.91
2023-04-26T13:03:42.817Z,100757.97
2023-04-26T13:06:12.751Z,100759.78
2023-04-26T13:08:43.300Z,100779.56
2023-04-26T13:11:12.848Z,100771.69
2023-04-26T13:13:44.402Z,100768.28
2023-04-26T13:16:14.693Z,100770.09
2023-04-26T13:18:44.318Z,100761.97
2023-04-26T13:21:14.794Z,100780.78
2023-04-26T13:23:44.473Z,100786.47
2023-04-26T13:26:16.435Z,100775.78
2023-04-26T13:28:46.100Z,100779.53
2023-04-26T13:31:16.932Z,100785.50
2023-04-26T13:33:48.867Z,100783.72
2023-04-26T13:36:19.053Z,100790.97
2023-04-26T13:38:48.625Z,100789.50
2023-04-26T13:41:18.256Z,100791.56
2023-04-26T13:43:48.014Z,100788.06
2023-04-26T13:46:17.687Z,100789.75
2023-04-26T13:48:47.376Z,100783.56
2023-04-26T13:51:16.992Z,100791.78
2023-04-26T13:53:46.578Z,100806.00
2023-04-26T13:56:16.380Z,100807.94
2023-04-26T13:58:46.198Z,100813.16
2023-04-26T14:01:15.950Z,100808.19
2023-04-26T14:03:45.785Z,100811.69
2023-04-26T14:06:15.587Z,100801.16
2023-04-26T14:08:45.188Z,100809.03
2023-04-26T14:11:15.771Z,100801.38
2023-04-26T14:13:45.326Z,100804.03
2023-04-26T14:16:15.070Z,100814.81
2023-04-26T14:18:46.764Z,100812.25
2023-04-26T14:21:16.346Z,100809.81
2023-04-26T14:23:45.897Z,100807.88
2023-04-26T14:26:15.574Z,100808.97
2023-04-26T14:28:45.179Z,100809.19
2023-04-26T14:31:14.847Z,100810.56
2023-04-26T14:33:44.458Z,100807.38
2023-04-26T14:36:14.407Z,100808.34
2023-04-26T14:38:45.283Z,100809.19
2023-04-26T14:41:21.744Z,100803.50
2023-04-26T14:43:52.349Z,100799.84
2023-04-26T14:46:22.076Z,100800.34
2023-04-26T14:48:51.685Z,100804.81
2023-04-26T14:51:21.215Z,100798.16
2023-04-26T14:53:50.814Z,100797.03
2023-04-26T14:56:20.383Z,100789.41
2023-04-26T14:58:50.072Z,100791.72
2023-04-26T15:01:19.724Z,100795.50
2023-04-26T15:03:49.535Z,100795.72
2023-04-26T15:06:19.736Z,100810.00
2023-04-26T15:08:49.395Z,100801.06
2023-04-26T15:11:19.336Z,100801.28
2023-04-26T15:13:48.881Z,100818.13
2023-04-26T15:16:18.788Z,100808.53
2023-04-26T15:18:48.473Z,100814.50
2023-04-26T15:21:21.582Z,100821.28
2023-04-26T15:23:51.165Z,100825.41
2023-04-26T15:26:20.798Z,100821.16
2023-04-26T15:28:50.396Z,100820.94
2023-04-26T15:31:20.051Z,100820.94
2023-04-26T15:33:49.867Z,100822.13
2023-04-26T15:36:21.757Z,100827.56
2023-04-26T15:38:51.377Z,100833.53
2023-04-26T15:41:21.046Z,100841.03
2023-04-26T15:43:55.060Z,100848.06
2023-04-26T15:46:24.777Z,100847.94
2023-04-26T15:48:54.353Z,100852.66
2023-04-26T15:51:23.921Z,100852.16
2023-04-26T15:53:54.105Z,100855.16
2023-04-26T15:56:23.684Z,100860.91
2023-04-26T15:58:53.411Z,100859.44
2023-04-26T16:01:23.206Z,100870.94
2023-04-26T16:03:54.275Z,100867.53
2023-04-26T16:06:24.021Z,100865.00
2023-04-26T16:08:53.692Z,100861.13
2023-04-26T16:11:23.496Z,100858.34
2023-04-26T16:13:53.396Z,100865.72
2023-04-26T16:16:23.042Z,100865.09
2023-04-26T16:18:53.050Z,100861.78
2023-04-26T16:21:22.746Z,100876.72
2023-04-26T16:23:53.539Z,100881.94
2023-04-26T16:26:23.662Z,100886.09
2023-04-26T16:28:53.416Z,100891.75
2023-04-26T16:31:23.892Z,100889.94
2023-04-26T16:33:54.248Z,100891.88
2023-04-26T16:36:23.833Z,100888.38
2023-04-26T16:38:53.407Z,100898.19
2023-04-26T16:41:24.628Z,100900.84
2023-04-26T16:43:55.758Z,100904.59
2023-04-26T16:46:25.443Z,100904.59
2023-04-26T16:48:55.850Z,100905.66
2023-04-26T16:51:25.442Z,100908.09
2023-04-26T16:53:54.978Z,100919.00
2023-04-26T16:56:24.775Z,100923.91
2023-04-26T16:58:54.825Z,100912.81
2023-04-26T17:01:24.812Z,100911.00
2023-04-26T17:03:54.749Z,100918.06
2023-04-26T17:06:24.434Z,100910.47
2023-04-26T17:08:54.092Z,100917.44
2023-04-26T17:11:23.908Z,100909.41
2023-04-26T17:13:53.451Z,100911.47
2023-04-26T17:16:23.107Z,100911.56
2023-04-26T17:18:53.064Z,100917.50
2023-04-26T17:21:22.735Z,100918.50
2023-04-26T17:23:52.417Z,100917.97
2023-04-26T17:26:23.199Z,100918.50
2023-04-26T17:28:52.936Z,100928.41
2023-04-26T17:31:22.772Z,100928.66
2023-04-26T17:33:52.593Z,100929.38
2023-04-26T17:36:22.324Z,100933.09
2023-04-26T17:38:52.023Z,100928.41
2023-04-26T17:41:21.644Z,100929.38
2023-04-26T17:43:51.322Z,100930.56
2023-04-26T17:46:20.922Z,100936.41
2023-04-26T17:48:50.557Z,100926.69
2023-04-26T17:51:20.211Z,100929.91
2023-04-26T17:53:49.806Z,100924.72
2023-04-26T17:56:20.340Z,100928.88
2023-04-26T17:58:50.207Z,100939.63
2023-04-26T18:01:19.890Z,100954.97
2023-04-26T18:03:49.763Z,100953.06
2023-04-26T18:06:21.020Z,100959.25
2023-04-26T18:08:50.647Z,100963.22
2023-04-26T18:11:21.124Z,100961.28
2023-04-26T18:13:50.886Z,100970.91
2023-04-26T18:16:20.565Z,100964.81
2023-04-26T18:18:50.170Z,100965.13
2023-04-26T18:21:19.716Z,100965.91
2023-04-26T18:23:49.846Z,100962.69
2023-04-26T18:26:19.407Z,100957.97
2023-04-26T18:28:48.981Z,100954.03
2023-04-26T18:31:19.243Z,100957.91
2023-04-26T18:33:50.031Z,100958.75
2023-04-26T18:36:19.797Z,100962.34
2023-04-26T18:38:49.421Z,100975.59
2023-04-26T18:41:19.443Z,100977.75
2023-04-26T18:43:49.012Z,100973.13
2023-04-26T18:46:18.633Z,100974.94
2023-04-26T18:48:48.367Z,100972.50
2023-04-26T18:51:17.981Z,100971.84
2023-04-26T18:53:47.572Z,100961.19
2023-04-26T18:56:17.262Z,100962.16
2023-04-26T18:58:46.969Z,100952.56
2023-04-26T19:01:16.603Z,100960.22
2023-04-26T19:03:46.340Z,100958.44
2023-04-26T19:06:18.848Z,100942.66
2023-04-26T19:08:48.620Z,100955.78
2023-04-26T19:11:18.192Z,100952.13
2023-04-26T19:13:47.775Z,100947.88
2023-04-26T19:16:17.447Z,100948.06
2023-04-26T19:18:48.769Z,100939.34
2023-04-26T19:21:18.342Z,100940.94
2023-04-26T19:23:47.957Z,100941.91
2023-04-26T19:26:17.765Z,100945.53
2023-04-26T19:28:47.575Z,100946.16
2023-04-26T19:31:17.229Z,100944.69
2023-04-26T19:33:47.540Z,100942.09
2023-04-26T19:36:17.154Z,100937.66
2023-04-26T19:38:46.863Z,100944.78
2023-04-26T19:41:16.493Z,100945.09
2023-04-26T19:43:46.034Z,100947.56
2023-04-26T19:46:16.711Z,100953.66
2023-04-26T19:48:46.378Z,100960.03
2023-04-26T19:51:19.315Z,100959.28
2023-04-26T19:53:48.915Z,100959.06
2023-04-26T19:56:18.557Z,100958.44
2023-04-26T19:58:48.724Z,100960.78
2023-04-26T20:01:18.589Z,100961.94
2023-04-26T20:03:48.268Z,100976.22
2023-04-26T20:06:18.171Z,100982.28
2023-04-26T20:08:47.862Z,100987.56
2023-04-26T20:11:18.361Z,100988.16
2023-04-26T20:13:48.404Z,100993.28
2023-04-26T20:16:18.002Z,101000.28
2023-04-26T20:18:47.622Z,100997.00
2023-04-26T20:21:17.170Z,100994.97
2023-04-26T20:23:46.778Z,101001.59
2023-04-26T20:26:16.439Z,101004.78
2023-04-26T20:28:47.433Z,101000.63
2023-04-26T20:31:17.007Z,101000.41
2023-04-26T20:33:47.005Z,100997.94
2023-04-26T20:36:16.808Z,101004.47
2023-04-26T20:38:46.353Z,101010.75
2023-04-26T20:41:15.951Z,101008.09
2023-04-26T20:43:45.890Z,101008.50
2023-04-26T20:46:15.569Z,101002.41
2023-04-26T20:48:45.152Z,101001.47
2023-04-26T20:51:14.870Z,101003.56
2023-04-26T20:53:45.276Z,101001.56
2023-04-26T20:56:14.820Z,100995.56
2023-04-26T20:58:44.397Z,101008.81
2023-04-26T21:01:14.092Z,101003.03
2023-04-26T21:03:43.871Z,101010.31
2023-04-26T21:06:13.563Z,101013.50
2023-04-26T21:08:44.559Z,101019.47
2023-04-26T21:11:14.173Z,101022.44
2023-04-26T21:13:43.884Z,101016.38
2023-04-26T21:16:13.910Z,101018.72
2023-04-26T21:18:43.466Z,101023.72
2023-04-26T21:21:13.283Z,101023.63
2023-04-26T21:23:42.903Z,101026.50
2023-04-26T21:26:12.469Z,101023.63
2023-04-26T21:28:42.180Z,101029.53
2023-04-26T21:31:11.963Z,101030.59
2023-04-26T21:33:41.575Z,101023.25
2023-04-26T21:36:11.358Z,101019.31
2023-04-26T21:38:40.927Z,101027.44
2023-04-26T21:41:10.472Z,101026.03
2023-04-26T21:43:40.184Z,101023.38
2023-04-26T21:46:09.833Z,101029.13
2023-04-26T21:48:40.732Z,101035.38
2023-04-26T21:51:10.375Z,101029.09
2023-04-26T21:53:39.974Z,101025.44
2023-04-26T21:56:10.248Z,101037.25
2023-04-26T21:58:39.841Z,101028.47
2023-04-26T22:01:14.340Z,101022.41
2023-04-26T22:03:43.472Z,101013.72
2023-04-26T22:06:13.567Z,101032.59
2023-04-26T22:08:43.438Z,101029.94
2023-04-26T22:11:13.092Z,101035.06
2023-04-26T22:13:42.809Z,101031.28
2023-04-26T22:16:12.559Z,101048.19
2023-04-26T22:18:42.247Z,101053.50
2023-04-26T22:21:12.850Z,101042.84
2023-04-26T22:23:42.505Z,101041.81
2023-04-26T22:26:12.066Z,101049.69
2023-04-26T22:28:41.663Z,101046.25
2023-04-26T22:31:11.227Z,101032.88
2023-04-26T22:33:40.821Z,101043.34
2023-04-26T22:36:10.863Z,101047.34
2023-04-26T22:38:40.426Z,101037.06
2023-04-26T22:41:09.976Z,101040.41
2023-04-26T22:43:39.554Z,101035.81
2023-04-26T22:46:09.614Z,101033.25
2023-04-26T22:48:39.257Z,101023.38
2023-04-26T22:51:08.916Z,101020.41
2023-04-26T22:53:38.545Z,101016.78
2023-04-26T22:56:08.973Z,101007.34
2023-04-26T22:58:38.603Z,101000.53
2023-04-26T23:01:11.212Z,100993.34
2023-04-26T23:03:40.960Z,100986.19
2023-04-26T23:06:11.337Z,100992.97
2023-04-26T23:08:41.075Z,100991.78
2023-04-26T23:11:11.182Z,100996.41
2023-04-26T23:13:40.980Z,100992.25
2023-04-26T23:16:10.884Z,100996.66
2023-04-26T23:18:40.729Z,100991.31
2023-04-26T23:21:13.267Z,100989.59
2023-04-26T23:23:44.360Z,100989.97
2023-04-26T23:26:20.133Z,100989.59
2023-04-26T23:28:50.039Z,100982.69
2023-04-26T23:31:23.173Z,100983.66
2023-04-26T23:33:59.080Z,100993.00
2023-04-26T23:36:29.349Z,101006.25
2023-04-26T23:38:59.051Z,101004.19
2023-04-26T23:41:34.406Z,100998.81
2023-04-26T23:44:07.699Z,100995.06
2023-04-26T23:46:37.454Z,100996.06
2023-04-26T23:49:07.245Z,101000.91
2023-04-26T23:51:39.637Z,100994.69
2023-04-26T23:54:12.226Z,101009.78
2023-04-26T23:56:44.560Z,101014.88
2023-04-26T23:59:17.963Z,101020.00
